Time;durP1;ratioP1;P1;durP2;ratioP2;P2;SDS_P1;SDS_P2;PMS_P1;PMS_P2;Temp;Humidity;BMP_temperature;BMP_pressure;BME280_temperature;BME280_humidity;BME280_pressure;Samples;Min_cycle;Max_cycle;Signal;HPM_P1;HPM_P2
2022/08/24 00:00:05;;;;;;;7.75;6.95;;;;;;;21.22;100.00;100183.38;5105617;28;20111;-65
2022/08/24 00:02:31;;;;;;;9.88;7.68;;;;;;;21.18;100.00;100191.13;5108223;27;20457;-66
2022/08/24 00:04:56;;;;;;;8.13;7.28;;;;;;;21.13;100.00;100190.06;5107512;27;20055;-66
2022/08/24 00:07:22;;;;;;;9.75;8.02;;;;;;;21.07;100.00;100183.56;5104907;28;20032;-65
2022/08/24 00:09:48;;;;;;;8.60;7.72;;;;;;;21.08;100.00;100195.28;5105223;28;20027;-65
2022/08/24 00:12:14;;;;;;;8.93;7.93;;;;;;;21.05;100.00;100193.81;5105888;27;20667;-65
2022/08/24 00:14:40;;;;;;;9.07;7.93;;;;;;;21.05;100.00;100184.81;5106464;28;20027;-65
2022/08/24 00:17:06;;;;;;;9.02;7.55;;;;;;;21.02;100.00;100193.41;5103308;28;20126;-64
2022/08/24 00:19:32;;;;;;;9.50;7.90;;;;;;;20.94;100.00;100179.94;5104719;28;20122;-65
2022/08/24 00:21:59;;;;;;;9.02;8.13;;;;;;;21.02;100.00;100187.94;5106091;28;20493;-66
2022/08/24 00:24:25;;;;;;;9.13;8.27;;;;;;;20.91;100.00;100186.59;5105801;28;20028;-64
2022/08/24 00:26:51;;;;;;;12.65;9.05;;;;;;;20.99;100.00;100182.91;5105724;28;20119;-65
2022/08/24 00:29:17;;;;;;;9.13;8.18;;;;;;;21.00;100.00;100196.31;5108971;27;20636;-64
2022/08/24 00:31:43;;;;;;;9.48;8.38;;;;;;;20.99;100.00;100188.34;5107256;27;20792;-65
2022/08/24 00:34:09;;;;;;;11.50;8.10;;;;;;;20.99;100.00;100197.34;5106035;28;20028;-65
2022/08/24 00:36:35;;;;;;;9.05;8.15;;;;;;;20.98;100.00;100192.09;5106571;28;20466;-65
2022/08/24 00:39:01;;;;;;;8.43;7.53;;;;;;;20.93;100.00;100194.59;5104881;28;20050;-65
2022/08/24 00:41:27;;;;;;;8.38;7.13;;;;;;;20.95;100.00;100196.09;5105072;28;20020;-66
2022/08/24 00:44:00;;;;;;;9.25;8.23;;;;;;;21.00;100.00;100203.66;5107160;27;20110;-66
2022/08/24 00:46:28;;;;;;;8.30;7.47;;;;;;;21.00;100.00;100206.38;5103742;28;20074;-64
2022/08/24 00:49:02;;;;;;;8.68;7.78;;;;;;;20.94;100.00;100210.78;5106763;28;20034;-65
2022/08/24 00:51:56;;;;;;;7.88;7.18;;;;;;;20.86;100.00;100200.00;5102389;28;20444;-65
2022/08/24 00:54:25;;;;;;;8.80;7.90;;;;;;;20.91;100.00;100204.84;5105630;28;20031;-65
2022/08/24 00:56:57;;;;;;;8.55;7.72;;;;;;;20.89;100.00;100202.31;5106254;28;20035;-64
2022/08/24 00:59:29;;;;;;;11.35;8.05;;;;;;;20.89;100.00;100210.50;5106155;28;20023;-66
2022/08/24 01:01:57;;;;;;;10.18;8.23;;;;;;;20.85;100.00;100220.13;5106750;28;20027;-65
2022/08/24 01:04:39;;;;;;;9.20;7.78;;;;;;;20.83;100.00;100211.31;5105851;28;20084;-64
2022/08/24 01:07:05;;;;;;;9.00;8.10;;;;;;;20.76;100.00;100207.72;5105871;28;20629;-64
2022/08/24 01:09:30;;;;;;;10.48;8.45;;;;;;;20.76;100.00;100204.16;5106429;28;20042;-66
2022/08/24 01:11:57;;;;;;;10.65;8.35;;;;;;;20.77;100.00;100203.97;5104497;28;20015;-66
2022/08/24 01:14:23;;;;;;;9.27;8.35;;;;;;;20.78;100.00;100210.25;5104785;28;20027;-65
2022/08/24 01:19:47;;;;;;;8.93;8.02;;;;;;;20.78;100.00;100210.25;5104670;28;20066;-65
2022/08/24 01:22:46;;;;;;;10.02;7.70;;;;;;;20.77;100.00;100209.41;5104118;28;20103;-65
2022/08/24 01:25:12;;;;;;;10.68;9.23;;;;;;;20.71;100.00;100207.50;5103691;28;20024;-65
2022/08/24 01:27:40;;;;;;;9.43;8.43;;;;;;;20.72;100.00;100206.44;5105854;28;20080;-65
2022/08/24 01:30:09;;;;;;;9.68;8.77;;;;;;;20.70;100.00;100207.69;5107946;28;20370;-65
2022/08/24 01:32:34;;;;;;;10.00;9.00;;;;;;;20.65;100.00;100205.56;5104727;28;20057;-66
2022/08/24 01:35:00;;;;;;;9.45;8.43;;;;;;;20.62;100.00;100214.16;5104407;28;20023;-66
2022/08/24 01:37:26;;;;;;;8.82;7.93;;;;;;;20.66;100.00;100222.78;5103126;28;20035;-66
2022/08/24 01:39:56;;;;;;;9.30;8.30;;;;;;;20.71;100.00;100223.00;5105399;28;20044;-64
2022/08/24 01:42:22;;;;;;;11.15;8.73;;;;;;;20.70;100.00;100218.59;5104144;28;20115;-65
2022/08/24 01:44:47;;;;;;;9.68;8.75;;;;;;;20.64;100.00;100219.41;5106176;28;20630;-65
2022/08/24 01:47:15;;;;;;;9.85;8.00;;;;;;;20.72;100.00;100224.66;5105653;28;20483;-64
2022/08/24 01:49:44;;;;;;;9.23;8.32;;;;;;;20.67;100.00;100222.56;5106121;28;20700;-64
2022/08/24 01:52:15;;;;;;;11.90;8.35;;;;;;;20.65;100.00;100223.81;5103260;28;20465;-65
2022/08/24 01:54:41;;;;;;;10.15;8.20;;;;;;;20.67;100.00;100221.72;5106715;28;20511;-65
2022/08/24 01:57:07;;;;;;;9.82;8.82;;;;;;;20.57;100.00;100204.91;5109222;28;20023;-66
2022/08/24 01:59:33;;;;;;;9.85;8.85;;;;;;;20.59;100.00;100220.00;5109359;28;20040;-64
2022/08/24 02:02:05;;;;;;;11.93;9.68;;;;;;;20.59;100.00;100219.16;5109735;28;20861;-66
2022/08/24 02:04:35;;;;;;;9.50;8.60;;;;;;;20.59;100.00;100228.19;5132668;27;20047;-65
2022/08/24 02:07:01;;;;;;;10.40;9.27;;;;;;;20.53;100.00;100226.25;5111669;27;20053;-65
2022/08/24 02:09:27;;;;;;;13.35;9.27;;;;;;;20.52;100.00;100226.44;5109501;28;20459;-65
2022/08/24 02:11:53;;;;;;;12.02;9.68;;;;;;;20.44;100.00;100204.84;5109345;28;20033;-66
2022/08/24 02:14:19;;;;;;;10.88;8.80;;;;;;;20.52;100.00;100221.84;5109021;28;20126;-65
2022/08/24 02:16:45;;;;;;;11.38;9.80;;;;;;;20.46;100.00;100203.56;5107861;28;20118;-64
2022/08/24 02:19:11;;;;;;;9.57;8.48;;;;;;;20.48;100.00;100217.84;5107388;28;20025;-66
2022/08/24 02:21:37;;;;;;;9.20;8.35;;;;;;;20.55;100.00;100223.31;5109202;28;20015;-65
2022/08/24 02:24:03;;;;;;;14.90;9.88;;;;;;;20.54;100.00;100221.66;5108760;27;20069;-66
2022/08/24 02:26:28;;;;;;;10.15;9.15;;;;;;;20.53;100.00;100226.25;5106583;28;20138;-65
2022/08/24 02:28:54;;;;;;;11.98;9.85;;;;;;;20.53;100.00;100220.81;5109242;28;20778;-64
2022/08/24 02:31:19;;;;;;;10.82;9.20;;;;;;;20.50;100.00;100209.47;5108817;28;20757;-65
2022/08/24 02:33:45;;;;;;;9.02;8.13;;;;;;;20.48;100.00;100211.56;5108710;28;20478;-65
2022/08/24 02:36:12;;;;;;;10.70;9.23;;;;;;;20.46;100.00;100224.53;5109002;27;20043;-66
2022/08/24 02:38:38;;;;;;;11.48;9.18;;;;;;;20.42;100.00;100205.03;5108993;28;20040;-66
2022/08/24 02:41:04;;;;;;;11.23;8.88;;;;;;;20.38;100.00;100202.91;5108965;28;20020;-64
2022/08/24 02:43:30;;;;;;;9.77;8.77;;;;;;;20.40;100.00;100220.72;5109054;27;20677;-64
2022/08/24 02:45:56;;;;;;;9.55;8.65;;;;;;;20.38;100.00;100214.66;5109135;28;20039;-66
2022/08/24 02:48:21;;;;;;;9.48;8.52;;;;;;;20.31;100.00;100204.75;5108324;28;20433;-65
2022/08/24 02:50:48;;;;;;;10.18;8.98;;;;;;;20.33;100.00;100217.13;5108479;28;20019;-65
2022/08/24 02:53:16;;;;;;;11.57;9.10;;;;;;;20.35;100.00;100225.09;5106760;28;20023;-66
2022/08/24 02:55:43;;;;;;;11.95;9.20;;;;;;;20.36;100.00;100227.63;5108544;28;20027;-66
2022/08/24 02:58:10;;;;;;;11.25;9.68;;;;;;;20.34;100.00;100226.16;5107889;28;20114;-67
2022/08/24 03:00:37;;;;;;;12.35;9.93;;;;;;;20.36;100.00;100215.88;5109576;27;20375;-65
2022/08/24 03:03:05;;;;;;;9.93;8.93;;;;;;;20.35;100.00;100216.91;5110667;27;20438;-65
2022/08/24 03:05:31;;;;;;;11.40;10.07;;;;;;;20.34;100.00;100216.06;5108413;27;20553;-65
2022/08/24 03:07:57;;;;;;;10.77;9.73;;;;;;;20.31;100.00;100216.47;5109058;27;20063;-65
2022/08/24 03:10:23;;;;;;;11.45;10.35;;;;;;;20.30;100.00;100222.13;5107948;28;20022;-65
2022/08/24 03:12:49;;;;;;;11.05;9.95;;;;;;;20.28;100.00;100225.03;5108039;28;20034;-67
2022/08/24 03:15:16;;;;;;;12.25;10.32;;;;;;;20.30;100.00;100230.28;5109833;27;20035;-66
2022/08/24 03:17:42;;;;;;;11.57;10.38;;;;;;;20.29;100.00;100224.00;5107791;28;20379;-65
2022/08/24 03:20:12;;;;;;;12.38;10.25;;;;;;;20.33;100.00;100232.63;5107554;28;20408;-64
2022/08/24 03:22:38;;;;;;;11.40;10.32;;;;;;;20.27;100.00;100219.78;5107229;28;20034;-65
2022/08/24 03:25:05;;;;;;;12.77;9.85;;;;;;;20.29;100.00;100224.00;5107307;28;20024;-65
2022/08/24 03:27:30;;;;;;;12.63;10.30;;;;;;;20.30;100.00;100227.56;5106483;28;20027;-66
2022/08/24 03:29:56;;;;;;;11.85;10.65;;;;;;;20.26;100.00;100205.34;5108357;28;20030;-66
2022/08/24 03:32:21;;;;;;;11.68;9.68;;;;;;;20.42;100.00;100209.63;5107687;28;20035;-66
2022/08/24 03:34:47;;;;;;;13.50;10.32;;;;;;;20.53;100.00;100215.34;5108034;28;20015;-65
2022/08/24 03:37:13;;;;;;;14.05;11.10;;;;;;;20.45;100.00;100206.50;5106377;28;20812;-65
2022/08/24 03:39:39;;;;;;;11.60;9.70;;;;;;;20.43;100.00;100206.69;5107903;28;20399;-65
2022/08/24 03:42:05;;;;;;;12.10;10.45;;;;;;;20.39;100.00;100204.56;5108886;27;20034;-64
2022/08/24 03:44:30;;;;;;;14.98;11.07;;;;;;;20.39;100.00;100215.47;5107963;28;20769;-65
2022/08/24 03:46:56;;;;;;;11.77;10.57;;;;;;;20.41;100.00;100202.50;5107904;28;20039;-66
2022/08/24 03:49:21;;;;;;;14.10;11.23;;;;;;;20.50;100.00;100204.03;5107561;28;20028;-65
2022/08/24 03:51:48;;;;;;;11.98;10.68;;;;;;;20.47;100.00;100201.72;5107552;28;20023;-64
2022/08/24 03:54:14;;;;;;;14.65;11.35;;;;;;;20.47;100.00;100198.97;5107118;28;20019;-65
2022/08/24 03:56:40;;;;;;;11.98;10.73;;;;;;;20.46;100.00;100189.09;5106250;28;20119;-66
2022/08/24 03:59:06;;;;;;;13.95;11.32;;;;;;;20.46;100.00;100192.69;5107483;28;20019;-66
2022/08/24 04:01:32;;;;;;;12.07;10.02;;;;;;;20.57;100.00;100202.19;5105935;28;20047;-65
2022/08/24 04:03:58;;;;;;;12.23;10.32;;;;;;;20.51;100.00;100203.84;5107983;28;20019;-66
2022/08/24 04:06:24;;;;;;;11.80;10.10;;;;;;;20.57;100.00;100210.34;5108266;28;20100;-66
2022/08/24 04:08:51;;;;;;;14.10;10.85;;;;;;;20.56;100.00;100222.28;5108964;28;20036;-65
2022/08/24 04:11:20;;;;;;;12.93;10.93;;;;;;;20.54;100.00;100221.66;5108942;27;20027;-66
2022/08/24 04:13:46;;;;;;;12.27;11.07;;;;;;;20.63;100.00;100220.47;5129308;27;20521;-66
2022/08/24 04:16:19;;;;;;;11.98;10.60;;;;;;;20.59;100.00;100222.72;5129112;27;20035;-65
2022/08/24 04:18:45;;;;;;;11.95;10.77;;;;;;;20.58;100.00;100222.94;5128998;27;20095;-65
2022/08/24 04:21:23;;;;;;;13.52;11.02;;;;;;;20.49;100.00;100213.22;5128860;27;20407;-66
2022/08/24 04:23:53;;;;;;;13.48;11.20;;;;;;;20.58;100.00;100234.69;5127659;27;20020;-66
2022/08/24 04:26:20;;;;;;;12.73;11.43;;;;;;;20.62;100.00;100224.19;5128620;27;20210;-65
2022/08/24 04:28:46;;;;;;;11.75;10.27;;;;;;;20.57;100.00;100215.81;5126328;27;20019;-65
2022/08/24 04:31:13;;;;;;;12.30;11.00;;;;;;;20.64;100.00;100220.25;5110275;27;20042;-65
2022/08/24 04:33:40;;;;;;;10.95;9.85;;;;;;;20.67;100.00;100217.09;5108125;28;20023;-66
2022/08/24 04:36:08;;;;;;;12.52;11.25;;;;;;;20.72;100.00;100216.50;5108360;28;20020;-65
2022/08/24 04:38:35;;;;;;;12.57;10.80;;;;;;;20.73;100.00;100210.84;5108098;27;20062;-65
2022/08/24 04:41:06;;;;;;;13.18;10.93;;;;;;;20.73;100.00;100210.03;5108156;28;20046;-65
2022/08/24 04:43:32;;;;;;;12.80;11.27;;;;;;;20.75;100.00;100213.38;5108009;28;20027;-65
2022/08/24 04:45:59;;;;;;;14.68;11.38;;;;;;;20.71;100.00;100202.03;5108239;28;20475;-66
2022/08/24 04:48:24;;;;;;;15.52;12.45;;;;;;;20.76;100.00;100215.06;5107574;28;20039;-65
2022/08/24 04:50:50;;;;;;;13.40;12.00;;;;;;;20.79;100.00;100225.56;5106470;28;20024;-65
2022/08/24 04:53:16;;;;;;;11.65;10.55;;;;;;;20.79;100.00;100225.56;5107504;28;20079;-65
2022/08/24 04:55:44;;;;;;;13.70;10.80;;;;;;;20.83;100.00;100232.28;5107740;28;20024;-65
2022/08/24 04:58:12;;;;;;;13.23;11.80;;;;;;;20.80;100.00;100222.63;5107279;28;20080;-66
2022/08/24 05:00:38;;;;;;;15.93;11.57;;;;;;;20.90;100.00;100231.28;5107510;28;20083;-66
2022/08/24 05:03:04;;;;;;;11.73;10.52;;;;;;;21.01;100.00;100232.59;5107788;28;20043;-66
2022/08/24 05:05:29;;;;;;;11.27;10.18;;;;;;;21.04;100.00;100219.41;5106210;28;20080;-66
2022/08/24 05:07:55;;;;;;;13.25;11.23;;;;;;;21.03;100.00;100217.75;5108568;28;20066;-66
2022/08/24 05:10:21;;;;;;;15.20;11.23;;;;;;;21.04;100.00;100219.41;5106809;28;20043;-66
2022/08/24 05:12:47;;;;;;;13.90;11.63;;;;;;;21.00;100.00;100212.69;5108554;28;20065;-66
2022/08/24 05:15:13;;;;;;;13.70;10.95;;;;;;;21.03;100.00;100209.56;5107541;28;20082;-66
2022/08/24 05:17:41;;;;;;;11.52;10.10;;;;;;;21.06;100.00;100200.13;5107864;28;20088;-66
2022/08/24 05:20:09;;;;;;;13.02;11.63;;;;;;;21.16;100.00;100220.50;5107524;28;20028;-65
2022/08/24 05:22:36;;;;;;;13.38;10.77;;;;;;;21.19;100.00;100217.38;5107771;28;20111;-66
2022/08/24 05:25:02;;;;;;;13.30;10.65;;;;;;;21.22;100.00;100225.13;5107709;28;20031;-66
2022/08/24 05:27:28;;;;;;;13.10;10.20;;;;;;;21.28;100.00;100228.94;5107447;28;20054;-65
2022/08/24 05:29:53;;;;;;;13.23;11.75;;;;;;;21.27;100.00;100232.69;5108408;28;20016;-65
2022/08/24 05:32:19;;;;;;;12.57;10.98;;;;;;;21.33;100.00;100245.50;5111738;28;20028;-66
2022/08/24 05:34:45;;;;;;;11.15;10.02;;;;;;;21.31;100.00;100226.63;5110263;28;20046;-65
2022/08/24 05:37:11;;;;;;;11.38;9.95;;;;;;;21.39;100.00;100237.38;5110730;28;20039;-65
2022/08/24 05:39:36;;;;;;;19.00;10.45;;;;;;;21.43;100.00;100238.63;5126724;27;20047;-66
2022/08/24 05:42:02;;;;;;;12.30;9.48;;;;;;;21.47;100.00;100228.16;5131819;27;20031;-66
2022/08/24 05:44:30;;;;;;;12.93;11.57;;;;;;;21.45;100.00;100232.97;5131196;27;20079;-66
2022/08/24 05:46:59;;;;;;;13.60;10.85;;;;;;;21.49;100.00;100229.63;5129935;27;20031;-66
2022/08/24 05:49:25;;;;;;;13.50;10.98;;;;;;;21.54;100.00;100226.28;5129761;27;20034;-65
2022/08/24 05:51:51;;;;;;;15.50;11.25;;;;;;;21.49;100.00;100212.38;5131097;27;20475;-65
2022/08/24 05:54:17;;;;;;;12.18;10.27;;;;;;;21.61;100.00;100229.84;5131570;27;20023;-66
2022/08/24 05:56:44;;;;;;;11.63;10.52;;;;;;;21.59;100.00;100221.00;5131582;27;20019;-65
2022/08/24 05:59:11;;;;;;;12.93;10.52;;;;;;;21.66;100.00;100236.34;5125516;27;20395;-65
2022/08/24 06:01:37;;;;;;;11.98;10.27;;;;;;;21.62;100.00;100220.59;5110935;28;20042;-66
2022/08/24 06:04:03;;;;;;;12.70;11.23;;;;;;;21.68;100.00;100226.09;5108820;28;20122;-65
2022/08/24 06:06:30;;;;;;;12.10;10.88;;;;;;;21.70;100.00;100225.88;5106263;28;20031;-65
2022/08/24 06:09:00;;;;;;;15.57;13.05;;;;;;;21.75;100.00;100213.31;5109030;28;20019;-65
2022/08/24 06:11:28;;;;;;;15.00;12.88;;;;;;;21.74;100.00;100219.78;5110648;28;20047;-65
2022/08/24 06:14:00;;;;;;;21.27;14.50;;;;;;;21.74;100.00;100221.72;5110467;28;20020;-65
2022/08/24 06:16:26;;;;;;;20.65;15.98;;;;;;;21.67;100.00;100201.72;5112315;28;20501;-65
2022/08/24 06:18:53;;;;;;;23.92;18.38;;;;;;;21.77;100.00;100218.56;5113055;27;20024;-65
2022/08/24 06:21:22;;;;;;;35.30;22.52;;;;;;;21.79;100.00;100222.75;5110222;28;20011;-65
2022/08/24 06:23:48;;;;;;;35.20;23.80;;;;;;;21.83;100.00;100228.66;5113067;28;20031;-65
2022/08/24 06:29:02;;;;;;;38.00;25.20;;;;;;;21.83;100.00;100240.41;5110465;28;20061;-65
2022/08/24 06:31:28;;;;;;;38.10;24.00;;;;;;;21.83;100.00;100243.13;5110437;28;21112;-65
2022/08/24 06:33:54;;;;;;;33.50;23.38;;;;;;;21.82;100.00;100246.06;5108849;28;20047;-65
2022/08/24 06:36:20;;;;;;;36.95;23.13;;;;;;;21.87;100.00;100257.22;5109962;28;20092;-65
2022/08/24 06:38:46;;;;;;;35.03;24.48;;;;;;;21.81;100.00;100250.72;5110123;28;20139;-66
2022/08/24 06:41:11;;;;;;;33.58;22.23;;;;;;;21.88;100.00;100267.94;5106924;28;20106;-65
2022/08/24 06:43:37;;;;;;;37.58;24.52;;;;;;;21.86;100.00;100263.75;5110219;28;20653;-65
2022/08/24 06:46:04;;;;;;;34.83;24.10;;;;;;;21.88;100.00;100265.19;5109717;28;20072;-66
2022/08/24 06:48:30;;;;;;;35.10;24.17;;;;;;;21.87;100.00;100274.44;5109413;28;20023;-65
2022/08/24 06:50:57;;;;;;;41.35;26.02;;;;;;;21.90;100.00;100284.13;5109672;28;20059;-65
2022/08/24 06:53:23;;;;;;;39.20;26.80;;;;;;;21.84;100.00;100285.78;5110216;28;20024;-65
2022/08/24 06:55:52;;;;;;;34.28;24.65;;;;;;;21.89;100.00;100296.06;5109871;28;20540;-64
2022/08/24 06:58:19;;;;;;;40.45;26.23;;;;;;;21.83;100.00;100286.00;5110484;28;20528;-65
2022/08/24 07:00:45;;;;;;;39.17;26.83;;;;;;;21.88;100.00;100297.13;5110156;28;20407;-65
2022/08/24 07:03:10;;;;;;;40.60;27.42;;;;;;;21.88;100.00;100291.66;5109697;28;20040;-66
2022/08/24 07:05:36;;;;;;;40.35;27.88;;;;;;;21.80;100.00;100280.94;5110231;27;20368;-65
2022/08/24 07:08:03;;;;;;;41.28;28.42;;;;;;;21.90;100.00;100292.31;5108715;27;20088;-66
2022/08/24 07:10:29;;;;;;;41.80;29.45;;;;;;;21.90;100.00;100284.13;5108361;27;20027;-65
2022/08/24 07:12:55;;;;;;;45.35;30.70;;;;;;;21.98;100.00;100297.56;5108336;28;20545;-66
2022/08/24 07:15:22;;;;;;;45.45;30.77;;;;;;;22.00;100.00;100303.66;5107969;28;20084;-64
2022/08/24 07:17:47;;;;;;;49.88;31.38;;;;;;;21.95;100.00;100289.78;5108557;28;20092;-65
2022/08/24 07:20:13;;;;;;;47.97;33.10;;;;;;;22.05;100.00;100306.59;5108153;28;20467;-66
2022/08/24 07:22:38;;;;;;;46.95;31.58;;;;;;;22.04;100.00;100305.78;5108510;28;20032;-65
2022/08/24 07:25:05;;;;;;;44.60;30.70;;;;;;;22.08;100.00;100309.75;5108927;28;20510;-66
2022/08/24 07:27:32;;;;;;;44.67;30.90;;;;;;;22.13;100.00;100309.13;5108419;28;20030;-66
2022/08/24 07:29:57;;;;;;;46.15;31.60;;;;;;;22.17;100.00;100316.72;5108295;28;20152;-66
2022/08/24 07:32:23;;;;;;;43.72;31.23;;;;;;;22.19;100.00;100316.50;5108107;28;20110;-65
2022/08/24 07:34:49;;;;;;;46.88;32.95;;;;;;;22.21;100.00;100315.22;5108491;28;20035;-65
2022/08/24 07:37:15;;;;;;;40.03;30.27;;;;;;;22.26;100.00;100312.72;5107967;28;20032;-65
2022/08/24 07:39:41;;;;;;;43.58;32.92;;;;;;;22.26;100.00;100312.72;5108335;28;20051;-66
2022/08/24 07:42:07;;;;;;;41.95;32.63;;;;;;;22.28;100.00;100320.72;5106970;28;20092;-66
2022/08/24 07:44:32;;;;;;;43.28;31.95;;;;;;;22.30;100.00;100321.31;5106932;27;20391;-66
2022/08/24 07:46:58;;;;;;;45.97;35.17;;;;;;;22.28;100.00;100320.72;5108153;27;20032;-66
2022/08/24 07:49:23;;;;;;;41.25;31.00;;;;;;;22.33;100.00;100323.63;5108662;28;20027;-65
2022/08/24 07:51:52;;;;;;;37.95;30.17;;;;;;;22.30;100.00;100326.78;5108832;28;20077;-66
2022/08/24 07:54:18;;;;;;;35.80;27.88;;;;;;;22.39;100.00;100333.75;5101013;27;20107;-66
2022/08/24 07:56:43;;;;;;;36.03;28.40;;;;;;;22.42;100.00;100330.59;5102366;28;20024;-66
2022/08/24 07:59:09;;;;;;;38.80;29.60;;;;;;;22.42;100.00;100329.72;5119534;27;20079;-66
2022/08/24 08:01:34;;;;;;;39.83;30.02;;;;;;;22.46;100.00;100331.84;5108608;27;20394;-66
2022/08/24 08:04:00;;;;;;;35.95;28.30;;;;;;;22.49;100.00;100333.31;5108141;28;20043;-66
2022/08/24 08:06:25;;;;;;;35.55;27.90;;;;;;;22.51;100.00;100329.38;5107588;28;20027;-66
2022/08/24 08:08:51;;;;;;;30.60;25.42;;;;;;;22.57;100.00;100338.59;5107841;28;20058;-64
2022/08/24 08:11:16;;;;;;;36.53;28.35;;;;;;;22.59;100.00;100336.47;5107845;28;20024;-65
2022/08/24 08:13:41;;;;;;;37.83;29.80;;;;;;;22.61;100.00;100337.13;5106518;28;20023;-65
2022/08/24 08:16:07;;;;;;;36.25;30.13;;;;;;;22.62;100.00;100338.78;5106731;28;20482;-64
2022/08/24 08:18:32;;;;;;;38.47;29.80;;;;;;;22.66;100.00;100340.91;5106028;28;20030;-65
2022/08/24 08:20:58;;;;;;;33.85;26.50;;;;;;;22.68;100.00;100343.41;5105023;28;20042;-65
2022/08/24 08:26:19;;;;;;;35.60;27.92;;;;;;;22.68;100.00;100338.81;5107802;28;20047;-65
2022/08/24 08:28:45;;;;;;;35.13;27.83;;;;;;;22.72;100.00;100344.66;5101092;28;20035;-64
2022/08/24 08:31:10;;;;;;;38.38;29.98;;;;;;;22.73;100.00;100344.47;5105384;28;20218;-64
2022/08/24 08:33:36;;;;;;;33.88;27.77;;;;;;;22.76;100.00;100332.28;5107703;28;20049;-65
2022/08/24 08:36:06;;;;;;;32.70;26.77;;;;;;;22.84;100.00;100342.97;5105870;28;20110;-65
2022/08/24 08:38:32;;;;;;;36.85;27.33;;;;;;;22.91;100.00;100350.13;5106476;28;20039;-65
2022/08/24 08:41:07;;;;;;;33.75;27.95;;;;;;;22.96;100.00;100338.53;5107058;28;20032;-64
2022/08/24 08:43:54;;;;;;;33.17;27.45;;;;;;;23.03;100.00;100342.09;5106674;28;20048;-64
2022/08/24 08:46:52;;;;;;;33.67;26.20;;;;;;;23.11;100.00;100337.22;5106736;28;20027;-64
2022/08/24 08:49:21;;;;;;;34.97;27.63;;;;;;;23.20;100.00;100346.03;5105730;28;20038;-63
2022/08/24 08:52:26;;;;;;;27.30;23.52;;;;;;;23.31;100.00;100346.25;5107299;28;20072;-63
2022/08/24 08:55:10;;;;;;;31.08;23.83;;;;;;;23.42;100.00;100342.84;5106235;28;20546;-65
2022/08/24 08:57:50;;;;;;;31.35;23.98;;;;;;;23.48;100.00;100339.25;5117417;27;20028;-65
2022/08/24 09:00:24;;;;;;;30.23;23.80;;;;;;;23.62;100.00;100345.50;5105993;28;20152;-65
2022/08/24 09:03:05;;;;;;;30.02;24.52;;;;;;;23.71;100.00;100350.50;5105222;28;20040;-65
2022/08/24 09:05:43;;;;;;;26.02;21.08;;;;;;;23.85;100.00;100357.59;5105263;28;20035;-65
2022/08/24 09:08:33;;;;;;;33.13;25.70;;;;;;;23.86;99.35;100350.22;5113099;28;20148;-66
2022/08/24 09:11:17;;;;;;;28.83;24.50;;;;;;;23.97;98.70;100360.50;5111716;27;20059;-65
2022/08/24 09:14:04;;;;;;;27.80;23.02;;;;;;;24.05;98.38;100365.72;5102163;28;20081;-66
2022/08/24 09:16:48;;;;;;;28.55;22.15;;;;;;;24.19;97.75;100365.41;5106882;28;20036;-66
2022/08/24 09:19:35;;;;;;;25.40;22.05;;;;;;;24.31;97.17;100368.28;5106235;28;20483;-66
2022/08/24 09:22:16;;;;;;;26.40;21.88;;;;;;;24.42;96.22;100351.13;5105285;28;20110;-66
2022/08/24 09:24:44;;;;;;;27.90;20.85;;;;;;;24.54;95.31;100351.22;5105737;28;20114;-65
2022/08/24 09:27:47;;;;;;;24.35;19.50;;;;;;;24.63;93.78;100347.16;5105973;28;20036;-66
2022/08/24 09:30:17;;;;;;;19.40;16.63;;;;;;;24.70;92.78;100347.97;5101918;28;20063;-66
2022/08/24 09:32:58;;;;;;;18.30;15.20;;;;;;;24.76;92.01;100344.31;5104672;28;20074;-66
2022/08/24 09:36:00;;;;;;;16.50;14.48;;;;;;;24.83;91.90;100340.44;5104938;28;20027;-66
2022/08/24 09:38:50;;;;;;;17.33;14.32;;;;;;;24.93;91.17;100337.19;5105679;28;20509;-62
2022/08/24 09:41:19;;;;;;;16.58;14.40;;;;;;;24.99;90.90;100334.34;5109315;28;20097;-65
2022/08/24 09:44:11;;;;;;;19.17;14.77;;;;;;;25.07;90.09;100328.56;5120351;28;20041;-66
2022/08/24 09:46:56;;;;;;;15.35;12.77;;;;;;;25.15;89.12;100332.94;5105064;28;20026;-65
2022/08/24 09:49:47;;;;;;;16.42;12.48;;;;;;;25.20;88.43;100333.91;5105815;28;20479;-65
2022/08/24 09:52:27;;;;;;;15.68;13.82;;;;;;;25.22;87.74;100330.94;5106422;28;20033;-66
2022/08/24 09:55:08;;;;;;;14.23;12.38;;;;;;;25.28;87.32;100317.13;5106253;28;20028;-66
2022/08/24 09:57:56;;;;;;;13.35;11.82;;;;;;;25.40;86.86;100328.19;5104845;28;20543;-66
2022/08/24 10:00:33;;;;;;;14.43;11.35;;;;;;;25.42;84.92;100304.94;5112558;28;20505;-65
2022/08/24 10:03:07;;;;;;;11.02;9.82;;;;;;;25.56;85.04;100313.84;5112307;27;20039;-65
2022/08/24 10:05:58;;;;;;;13.07;11.05;;;;;;;25.64;84.38;100306.13;5106453;28;20584;-65
2022/08/24 10:08:51;;;;;;;11.25;9.65;;;;;;;25.69;82.84;100309.00;5106542;28;20042;-65
2022/08/24 10:11:53;;;;;;;13.43;11.10;;;;;;;25.70;81.90;100304.38;5104023;28;20024;-65
2022/08/24 10:14:40;;;;;;;11.77;10.57;;;;;;;25.72;82.59;100297.56;5106037;28;20725;-65
2022/08/24 10:17:30;;;;;;;13.13;10.55;;;;;;;25.74;82.60;100308.31;5109057;28;20112;-65
2022/08/24 10:20:22;;;;;;;14.85;11.55;;;;;;;25.75;82.51;100302.59;5093530;28;20566;-66
2022/08/24 10:23:19;;;;;;;10.85;9.75;;;;;;;25.78;82.33;100317.75;5108529;28;20019;-66
2022/08/24 10:26:01;;;;;;;15.57;11.70;;;;;;;25.73;82.66;100312.97;5093461;28;20459;-66
2022/08/24 10:28:53;;;;;;;15.02;13.00;;;;;;;25.73;83.15;100312.16;5109011;28;20023;-65
2022/08/24 10:31:37;;;;;;;15.93;13.20;;;;;;;25.66;84.04;100314.16;5108189;28;20039;-66
2022/08/24 10:34:17;;;;;;;17.23;14.88;;;;;;;25.65;84.51;100321.53;5109361;28;20019;-66
2022/08/24 10:36:45;;;;;;;16.98;14.45;;;;;;;25.64;84.66;100324.53;5112000;27;20055;-65
2022/08/24 10:39:50;;;;;;;15.40;12.27;;;;;;;25.65;84.47;100320.69;5107426;28;20063;-66
2022/08/24 10:46:05;;;;;;;15.98;12.98;;;;;;;25.71;85.03;100322.50;5108076;28;20092;-66
2022/08/24 10:48:31;;;;;;;16.02;12.65;;;;;;;25.79;83.23;100327.72;5114669;27;20028;-66
2022/08/24 10:51:21;;;;;;;14.77;12.65;;;;;;;25.84;80.89;100328.69;5109252;28;20032;-66
2022/08/24 10:53:52;;;;;;;11.93;10.68;;;;;;;25.91;79.37;100321.16;5098735;28;20479;-66
2022/08/24 10:56:30;;;;;;;14.18;11.80;;;;;;;25.92;79.37;100316.53;5111451;27;20055;-66
2022/08/24 10:59:25;;;;;;;19.63;16.08;;;;;;;26.07;79.82;100319.69;5108308;28;20031;-66
2022/08/24 11:02:06;;;;;;;;;;;;;;;26.11;80.10;100331.88;5072301;28;20043;-66
2022/08/24 11:04:34;;;;;;;19.50;17.40;;;;;;;26.19;80.76;100329.66;5108363;28;19969;-65
2022/08/24 11:07:04;;;;;;;19.63;17.17;;;;;;;26.24;79.97;100339.94;5108638;28;20031;-66
2022/08/24 11:09:54;;;;;;;20.73;17.48;;;;;;;26.26;79.29;100341.41;5108555;28;20564;-66
2022/08/24 11:12:42;;;;;;;20.10;15.68;;;;;;;26.30;78.66;100337.09;5109935;27;20027;-65
2022/08/24 11:15:16;;;;;;;18.70;15.30;;;;;;;26.38;78.83;100342.22;5113271;27;20382;-66
2022/08/24 11:17:55;;;;;;;19.45;14.13;;;;;;;26.45;77.99;100347.66;5105956;28;20039;-63
2022/08/24 11:20:39;;;;;;;16.58;14.73;;;;;;;26.49;77.78;100335.94;5108553;28;20024;-63
2022/08/24 11:23:14;;;;;;;16.70;14.90;;;;;;;26.55;76.60;100342.38;5108815;28;20063;-63
2022/08/24 11:25:53;;;;;;;16.92;15.10;;;;;;;26.58;76.03;100339.16;5091490;28;20049;-66
2022/08/24 11:28:30;;;;;;;17.33;15.52;;;;;;;26.68;74.75;100344.09;5116970;27;20046;-66
2022/08/24 11:30:56;;;;;;;15.00;13.50;;;;;;;26.71;74.86;100341.72;5106658;28;20012;-66
2022/08/24 11:33:32;;;;;;;16.70;14.85;;;;;;;26.70;74.35;100345.56;5105775;28;20084;-66